Time;durP1;ratioP1;P1;durP2;ratioP2;P2;SDS_P1;SDS_P2;PMS_P1;PMS_P2;Temp;Humidity;BMP_temperature;BMP_pressure;BME280_temperature;BME280_humidity;BME280_pressure;Samples;Min_cycle;Max_cycle;Signal;HPM_P1;HPM_P2
2023/06/23 00:00:28;;;;;;;3.17;1.70;;;;;;;-145.41;100.00;58600.66;5009299;28;20037;-77
2023/06/23 00:02:54;;;;;;;3.80;1.88;;;;;;;-145.41;100.00;58600.66;5021573;28;20038;-77
2023/06/23 00:05:20;;;;;;;5.93;1.90;;;;;;;-145.41;100.00;58600.66;5015289;28;20049;-77
2023/06/23 00:07:46;;;;;;;3.38;1.65;;;;;;;-145.41;100.00;58600.66;5023801;28;20026;-77
2023/06/23 00:10:11;;;;;;;3.80;1.80;;;;;;;-145.41;100.00;58600.66;5021042;28;20540;-77
2023/06/23 00:12:41;;;;;;;4.18;2.00;;;;;;;-145.41;100.00;58600.66;5025149;28;20032;-78
2023/06/23 00:15:12;;;;;;;6.45;2.75;;;;;;;-145.41;100.00;58600.66;5016971;28;20511;-78
2023/06/23 00:17:38;;;;;;;6.67;2.30;;;;;;;-145.41;100.00;58600.66;5005658;28;20033;-78
2023/06/23 00:20:10;;;;;;;4.82;1.90;;;;;;;-145.41;100.00;58600.66;5022398;28;20710;-78
2023/06/23 00:22:36;;;;;;;4.80;2.03;;;;;;;-145.41;100.00;58600.66;5022205;28;20030;-78
2023/06/23 00:25:02;;;;;;;5.60;2.30;;;;;;;-145.41;100.00;58600.66;5025916;28;20033;-77
2023/06/23 00:27:28;;;;;;;5.07;2.33;;;;;;;-145.41;100.00;58600.66;5024481;28;20504;-77
2023/06/23 00:29:54;;;;;;;7.88;2.20;;;;;;;-145.41;100.00;58600.66;5013188;28;20033;-77
2023/06/23 00:32:19;;;;;;;5.68;2.33;;;;;;;-145.41;100.00;58600.66;5006546;28;20038;-78
2023/06/23 00:34:44;;;;;;;6.00;2.28;;;;;;;-145.41;100.00;58600.66;5019336;28;20029;-78
2023/06/23 00:37:10;;;;;;;5.82;2.67;;;;;;;-145.41;100.00;58600.66;5010530;28;20045;-78
2023/06/23 00:39:35;;;;;;;4.70;2.47;;;;;;;-145.41;100.00;58600.66;5020162;28;20061;-77
2023/06/23 00:42:03;;;;;;;5.10;2.70;;;;;;;-145.41;100.00;58600.66;5022735;28;20030;-77
2023/06/23 00:44:29;;;;;;;7.15;2.50;;;;;;;-145.41;100.00;58600.66;4997493;28;20040;-77
2023/06/23 00:46:55;;;;;;;5.13;2.63;;;;;;;-145.41;100.00;58600.66;5004632;28;20042;-77
2023/06/23 00:49:20;;;;;;;5.68;2.15;;;;;;;-145.41;100.00;58600.66;4996327;28;20056;-77
2023/06/23 00:51:46;;;;;;;4.85;2.55;;;;;;;-145.41;100.00;58600.66;5001498;28;20411;-77
2023/06/23 00:54:11;;;;;;;4.38;2.65;;;;;;;-145.41;100.00;58600.66;4999296;28;20031;-77
2023/06/23 00:56:38;;;;;;;6.05;2.60;;;;;;;-145.41;100.00;58600.66;5021141;28;20034;-77
2023/06/23 00:59:06;;;;;;;5.40;2.75;;;;;;;-145.41;100.00;58600.66;5002249;28;20046;-78
2023/06/23 01:01:31;;;;;;;5.63;3.10;;;;;;;-145.41;100.00;58600.66;5022636;28;20431;-77
2023/06/23 01:04:01;;;;;;;6.05;3.15;;;;;;;-145.41;100.00;58600.66;5025884;28;20049;-77
2023/06/23 01:06:52;;;;;;;5.50;3.28;;;;;;;-145.41;100.00;58600.66;5019552;28;20042;-77
2023/06/23 01:09:31;;;;;;;4.53;3.03;;;;;;;-145.41;100.00;58600.66;5019030;28;20112;-77
2023/06/23 01:12:23;;;;;;;8.18;3.20;;;;;;;-145.41;100.00;58600.66;5019991;28;20686;-76
2023/06/23 01:15:01;;;;;;;6.35;3.33;;;;;;;-145.41;100.00;58600.66;5012411;28;20377;-76
2023/06/23 01:17:35;;;;;;;5.15;2.88;;;;;;;-145.41;100.00;58600.66;5017814;28;20026;-76
2023/06/23 01:20:21;;;;;;;5.40;2.70;;;;;;;-145.41;100.00;58600.66;5019236;28;20029;-76
2023/06/23 01:23:06;;;;;;;5.53;3.20;;;;;;;-145.41;100.00;58600.66;5020782;28;20029;-76
2023/06/23 01:25:50;;;;;;;6.35;3.58;;;;;;;-145.41;100.00;58600.66;5022192;28;20439;-76
2023/06/23 01:28:18;;;;;;;5.68;3.25;;;;;;;-145.41;100.00;58600.66;5020037;28;20036;-76
2023/06/23 01:30:47;;;;;;;4.93;2.72;;;;;;;-145.41;100.00;58600.66;4997976;28;20083;-76
2023/06/23 01:33:21;;;;;;;5.38;2.75;;;;;;;-145.41;100.00;58600.66;5007458;28;20040;-76
2023/06/23 01:35:54;;;;;;;5.80;3.63;;;;;;;-145.41;100.00;58600.66;5020008;28;20029;-76
2023/06/23 01:38:24;;;;;;;6.20;3.08;;;;;;;-145.41;100.00;58600.66;5002292;28;20037;-76
2023/06/23 01:40:54;;;;;;;5.47;2.78;;;;;;;-145.41;100.00;58600.66;5007779;28;20041;-76
2023/06/23 01:43:29;;;;;;;3.55;2.25;;;;;;;-145.41;100.00;58600.66;5023721;28;20034;-76
2023/06/23 01:46:02;;;;;;;5.85;2.70;;;;;;;-145.41;100.00;58600.66;5017359;28;20049;-76
2023/06/23 01:48:28;;;;;;;4.00;2.45;;;;;;;-145.41;100.00;58600.66;4998485;28;20507;-76
2023/06/23 01:50:54;;;;;;;4.63;3.25;;;;;;;-145.41;100.00;58600.66;5004505;28;20025;-75
2023/06/23 01:53:21;;;;;;;5.25;2.80;;;;;;;-145.41;100.00;58600.66;5009533;28;20033;-76
2023/06/23 01:55:48;;;;;;;5.07;3.08;;;;;;;-145.41;100.00;58600.66;5008096;28;20121;-76
2023/06/23 01:58:15;;;;;;;5.43;2.88;;;;;;;-145.41;100.00;58600.66;5022801;28;20037;-75
2023/06/23 02:00:41;;;;;;;3.83;2.50;;;;;;;-145.41;100.00;58600.66;5009706;28;20377;-75
2023/06/23 02:03:08;;;;;;;6.68;3.38;;;;;;;-145.41;100.00;58600.66;5023324;28;20029;-75
2023/06/23 02:05:35;;;;;;;4.40;2.60;;;;;;;-145.41;100.00;58600.66;5019349;28;20049;-75
2023/06/23 02:08:05;;;;;;;5.95;3.30;;;;;;;-145.41;100.00;58600.66;5018682;28;20033;-75
2023/06/23 02:10:31;;;;;;;5.22;3.30;;;;;;;-145.41;100.00;58600.66;5021535;28;20038;-75
2023/06/23 02:12:58;;;;;;;4.00;2.20;;;;;;;-145.41;100.00;58600.66;5019747;28;20128;-76
2023/06/23 02:15:25;;;;;;;4.75;2.45;;;;;;;-145.41;100.00;58600.66;5003881;28;20124;-75
2023/06/23 02:17:52;;;;;;;6.80;2.72;;;;;;;-145.41;100.00;58600.66;5021885;28;20578;-75
2023/06/23 02:20:23;;;;;;;3.60;2.17;;;;;;;-145.41;100.00;58600.66;5005799;28;20033;-75
2023/06/23 02:22:50;;;;;;;4.25;2.58;;;;;;;-145.41;100.00;58600.66;5001716;28;20670;-75
2023/06/23 02:25:17;;;;;;;5.80;2.70;;;;;;;-145.41;100.00;58600.66;5021567;28;20032;-73
2023/06/23 02:27:44;;;;;;;6.68;2.53;;;;;;;-145.41;100.00;58600.66;5021949;28;20109;-75
2023/06/23 02:30:10;;;;;;;5.65;2.40;;;;;;;-145.41;100.00;58600.66;5007407;28;20453;-75
2023/06/23 02:32:36;;;;;;;3.97;2.45;;;;;;;-145.41;100.00;58600.66;5021099;28;20404;-75
2023/06/23 02:35:03;;;;;;;3.85;2.40;;;;;;;-145.41;100.00;58600.66;5001536;28;20041;-75
2023/06/23 02:37:31;;;;;;;5.03;2.30;;;;;;;-145.41;100.00;58600.66;5004148;28;20037;-74
2023/06/23 02:40:16;;;;;;;3.75;2.55;;;;;;;-145.41;100.00;58600.66;5020246;28;20446;-75
2023/06/23 02:42:51;;;;;;;5.05;2.67;;;;;;;-145.41;100.00;58600.66;5005540;28;20069;-75
2023/06/23 02:45:22;;;;;;;5.32;2.55;;;;;;;-145.41;100.00;58600.66;5006258;28;20034;-74
2023/06/23 02:47:51;;;;;;;5.18;3.63;;;;;;;-145.41;100.00;58600.66;5021106;28;20116;-75
2023/06/23 02:50:21;;;;;;;4.85;3.30;;;;;;;-145.41;100.00;58600.66;5020427;28;20022;-75
2023/06/23 02:52:51;;;;;;;5.88;3.40;;;;;;;-145.41;100.00;58600.66;5001070;28;20400;-75
2023/06/23 02:55:20;;;;;;;5.40;3.55;;;;;;;-145.41;100.00;58600.66;5017319;28;20481;-75
2023/06/23 02:57:49;;;;;;;4.07;2.90;;;;;;;-145.41;100.00;58600.66;4999868;28;20493;-74
2023/06/23 03:00:21;;;;;;;5.60;2.90;;;;;;;-145.41;100.00;58600.66;5021922;28;20084;-74
2023/06/23 03:02:52;;;;;;;4.25;2.33;;;;;;;-145.41;100.00;58600.66;5024038;28;20508;-74
2023/06/23 03:05:21;;;;;;;4.30;3.00;;;;;;;-145.41;100.00;58600.66;5004401;28;20048;-74
2023/06/23 03:07:49;;;;;;;5.45;3.47;;;;;;;-145.41;100.00;58600.66;5023274;28;20287;-74
2023/06/23 03:10:15;;;;;;;7.35;3.58;;;;;;;-145.41;100.00;58600.66;5011096;28;20087;-74
2023/06/23 03:12:40;;;;;;;4.15;3.22;;;;;;;-145.41;100.00;58600.66;5022600;28;20049;-74
2023/06/23 03:15:06;;;;;;;7.07;4.88;;;;;;;-145.41;100.00;58600.66;5001386;28;20034;-74
2023/06/23 03:17:33;;;;;;;4.78;3.92;;;;;;;-145.41;100.00;58600.66;5023412;28;20056;-74
2023/06/23 03:20:11;;;;;;;5.10;4.13;;;;;;;-145.41;100.00;58600.66;5023573;28;20033;-74
2023/06/23 03:22:42;;;;;;;5.38;3.95;;;;;;;-145.41;100.00;58600.66;5017033;28;20026;-74
2023/06/23 03:25:25;;;;;;;6.25;5.10;;;;;;;-145.41;100.00;58600.66;5013332;28;20056;-74
2023/06/23 03:27:55;;;;;;;8.32;5.20;;;;;;;-145.41;100.00;58600.66;5003799;28;20037;-76
2023/06/23 03:30:26;;;;;;;5.97;3.85;;;;;;;-145.41;100.00;58600.66;5002307;28;20030;-76
2023/06/23 03:32:57;;;;;;;5.55;3.20;;;;;;;-145.41;100.00;58600.66;5025980;28;20492;-75
2023/06/23 03:35:27;;;;;;;6.38;3.83;;;;;;;-145.41;100.00;58600.66;5020531;28;20492;-75
2023/06/23 03:37:57;;;;;;;5.15;3.95;;;;;;;-145.41;100.00;58600.66;5024934;28;20044;-75
2023/06/23 03:40:25;;;;;;;5.55;3.40;;;;;;;-145.41;100.00;58600.66;5021553;28;20106;-75
2023/06/23 03:42:54;;;;;;;5.50;3.78;;;;;;;-145.41;100.00;58600.66;5003807;28;20092;-75
2023/06/23 03:45:23;;;;;;;6.72;3.80;;;;;;;-145.41;100.00;58600.66;5022658;28;20088;-75
2023/06/23 03:47:52;;;;;;;5.30;4.15;;;;;;;-145.41;100.00;58600.66;5025406;28;20037;-75
2023/06/23 03:50:22;;;;;;;7.75;3.90;;;;;;;-145.41;100.00;58600.66;5020465;28;20025;-75
2023/06/23 03:52:48;;;;;;;7.53;3.50;;;;;;;-145.41;100.00;58600.66;5020957;28;20038;-75
2023/06/23 03:55:17;;;;;;;5.75;3.67;;;;;;;-145.41;100.00;58600.66;5028026;28;20038;-75
2023/06/23 03:57:44;;;;;;;6.15;3.92;;;;;;;-145.41;100.00;58600.66;5024673;28;20506;-75
2023/06/23 04:00:11;;;;;;;7.15;4.47;;;;;;;-145.41;100.00;58600.66;5022736;28;20507;-75
2023/06/23 04:02:42;;;;;;;5.50;4.70;;;;;;;-145.41;100.00;58600.66;5026951;28;20061;-75
2023/06/23 04:05:12;;;;;;;5.65;4.53;;;;;;;-145.41;100.00;58600.66;5027008;28;20038;-75
2023/06/23 04:07:39;;;;;;;6.47;5.38;;;;;;;-145.41;100.00;58600.66;5027332;28;20033;-75
2023/06/23 04:10:07;;;;;;;7.57;5.03;;;;;;;-145.41;100.00;58600.66;5018675;28;20037;-75
2023/06/23 04:12:34;;;;;;;7.63;4.40;;;;;;;-145.41;100.00;58600.66;4997275;28;20140;-75
2023/06/23 04:15:03;;;;;;;6.75;3.92;;;;;;;-145.41;100.00;58600.66;5023166;28;20045;-75
2023/06/23 04:17:31;;;;;;;5.47;4.20;;;;;;;-145.41;100.00;58600.66;5022868;28;20048;-75
2023/06/23 04:20:01;;;;;;;6.30;4.35;;;;;;;-145.41;100.00;58600.66;5018311;28;20034;-75
2023/06/23 04:22:27;;;;;;;6.70;4.40;;;;;;;-145.41;100.00;58600.66;5021809;28;20037;-75
2023/06/23 04:24:56;;;;;;;8.48;6.80;;;;;;;-145.41;100.00;58600.66;5022805;28;20034;-75
2023/06/23 04:27:23;;;;;;;12.40;8.85;;;;;;;-145.41;100.00;58600.66;5023643;28;20459;-75
2023/06/23 04:29:51;;;;;;;9.70;8.32;;;;;;;-145.41;100.00;58600.66;5025110;28;20037;-75
2023/06/23 04:32:17;;;;;;;9.55;8.18;;;;;;;-145.41;100.00;58600.66;5017852;28;20064;-75
2023/06/23 04:34:43;;;;;;;10.10;8.55;;;;;;;-145.41;100.00;58600.66;5024937;28;20508;-75
2023/06/23 04:37:19;;;;;;;9.50;7.93;;;;;;;-145.41;100.00;58600.66;5024204;28;20045;-75
2023/06/23 04:39:54;;;;;;;10.40;8.90;;;;;;;-145.41;100.00;58600.66;5017072;28;20469;-75
2023/06/23 04:42:26;;;;;;;9.82;7.97;;;;;;;-145.41;100.00;58600.66;5022551;28;20044;-75
2023/06/23 04:44:55;;;;;;;13.55;9.63;;;;;;;-145.41;100.00;58600.66;5018443;28;20500;-75
2023/06/23 04:47:22;;;;;;;10.63;8.52;;;;;;;-145.41;100.00;58600.66;5019538;28;20064;-75
2023/06/23 04:49:57;;;;;;;11.45;10.25;;;;;;;-145.41;100.00;58600.66;5022995;28;20057;-75
2023/06/23 04:52:23;;;;;;;11.73;10.18;;;;;;;-145.41;100.00;58600.66;5019011;28;20030;-75
2023/06/23 04:54:52;;;;;;;12.32;10.32;;;;;;;-145.41;100.00;58600.66;5024398;28;20030;-75
2023/06/23 04:57:21;;;;;;;12.45;10.98;;;;;;;-145.41;100.00;58600.66;5023100;28;20045;-75
2023/06/23 04:59:53;;;;;;;12.82;11.52;;;;;;;-145.41;100.00;58600.66;5022559;28;20040;-75
2023/06/23 05:02:20;;;;;;;13.75;12.30;;;;;;;-145.41;100.00;58600.66;5018419;28;20061;-75
2023/06/23 05:04:48;;;;;;;16.00;13.35;;;;;;;-145.41;100.00;58600.66;5015848;28;20045;-75
2023/06/23 05:07:16;;;;;;;15.27;13.77;;;;;;;-145.41;100.00;58600.66;5019342;28;20108;-75
2023/06/23 05:09:46;;;;;;;14.52;13.13;;;;;;;-145.41;100.00;58600.66;5024962;28;20033;-75
2023/06/23 05:12:14;;;;;;;13.40;12.00;;;;;;;-145.41;100.00;58600.66;5023623;28;20041;-75
2023/06/23 05:14:41;;;;;;;9.63;8.70;;;;;;;-145.41;100.00;58600.66;5019756;28;20124;-75
2023/06/23 05:17:09;;;;;;;9.15;7.78;;;;;;;-145.41;100.00;58600.66;5024015;28;20480;-75
2023/06/23 05:19:37;;;;;;;12.25;11.00;;;;;;;-145.41;100.00;58600.66;5017293;28;20040;-75
2023/06/23 05:22:08;;;;;;;11.88;10.02;;;;;;;-145.41;100.00;58600.66;5020676;28;20030;-75
2023/06/23 05:24:37;;;;;;;12.68;10.88;;;;;;;-145.41;100.00;58600.66;5020067;28;20037;-75
2023/06/23 05:27:08;;;;;;;17.63;12.85;;;;;;;-145.41;100.00;58600.66;5023152;28;20032;-75
2023/06/23 05:29:36;;;;;;;14.98;10.88;;;;;;;-145.41;100.00;58600.66;5024177;28;20033;-75
2023/06/23 05:32:06;;;;;;;13.35;9.27;;;;;;;-145.41;100.00;58600.66;5022584;28;20041;-75
2023/06/23 05:34:32;;;;;;;11.43;10.23;;;;;;;-145.41;100.00;58600.66;5019807;28;20045;-75
2023/06/23 05:37:01;;;;;;;11.00;9.90;;;;;;;-145.41;100.00;58600.66;5024533;28;20164;-75
2023/06/23 05:39:29;;;;;;;14.13;11.80;;;;;;;-145.41;100.00;58600.66;5016777;28;20035;-75
2023/06/23 05:41:55;;;;;;;14.95;12.25;;;;;;;-145.41;100.00;58600.66;5021012;28;20048;-75
2023/06/23 05:44:20;;;;;;;13.27;11.85;;;;;;;-145.41;100.00;58600.66;5022022;28;20038;-75
2023/06/23 05:46:48;;;;;;;12.77;10.60;;;;;;;-145.41;100.00;58600.66;5024173;28;20034;-76
2023/06/23 05:49:18;;;;;;;9.80;7.90;;;;;;;-145.41;100.00;58600.66;5023591;28;20041;-75
2023/06/23 05:51:47;;;;;;;13.63;11.25;;;;;;;-145.41;100.00;58600.66;5018595;28;20546;-75
2023/06/23 05:54:14;;;;;;;15.32;12.38;;;;;;;-145.41;100.00;58600.66;5020071;28;20044;-75
2023/06/23 05:56:46;;;;;;;15.57;13.63;;;;;;;-145.41;100.00;58600.66;5019838;28;20034;-75
2023/06/23 05:59:27;;;;;;;14.25;12.50;;;;;;;-145.41;100.00;58600.66;5025425;28;20037;-75
2023/06/23 06:01:58;;;;;;;14.35;12.95;;;;;;;-145.41;100.00;58600.66;5015674;28;20531;-75
2023/06/23 06:04:32;;;;;;;12.50;11.30;;;;;;;-145.41;100.00;58600.66;5021971;28;20456;-75
2023/06/23 06:06:59;;;;;;;12.38;11.07;;;;;;;-145.41;100.00;58600.66;5017005;28;20033;-75
2023/06/23 06:09:27;;;;;;;15.25;12.70;;;;;;;-145.41;100.00;58600.66;5019006;28;20084;-75
2023/06/23 06:11:55;;;;;;;12.85;11.45;;;;;;;-145.41;100.00;58600.66;5013242;28;20038;-76
2023/06/23 06:14:22;;;;;;;10.38;9.43;;;;;;;-145.41;100.00;58600.66;5023398;28;20045;-75
2023/06/23 06:16:50;;;;;;;10.10;8.32;;;;;;;-145.41;100.00;58600.66;5024553;28;20461;-76
2023/06/23 06:19:18;;;;;;;14.00;6.30;;;;;;;-145.41;100.00;58600.66;5021126;28;20037;-75
2023/06/23 06:21:46;;;;;;;8.35;6.45;;;;;;;-145.41;100.00;58600.66;5019838;28;20034;-76
2023/06/23 06:24:14;;;;;;;22.75;9.40;;;;;;;-145.41;100.00;58600.66;5022966;28;20603;-75
2023/06/23 06:26:43;;;;;;;11.73;10.38;;;;;;;-145.41;100.00;58600.66;5022274;28;20034;-76
2023/06/23 06:29:09;;;;;;;14.23;12.40;;;;;;;-145.41;100.00;58600.66;5023507;28;20496;-76
2023/06/23 06:31:36;;;;;;;7.85;6.82;;;;;;;-145.41;100.00;58600.66;5025161;28;20029;-76
2023/06/23 06:34:03;;;;;;;11.45;9.25;;;;;;;-145.41;100.00;58600.66;5024290;28;20128;-75
2023/06/23 06:36:31;;;;;;;11.20;8.57;;;;;;;-145.41;100.00;58600.66;5030201;28;20441;-75
2023/06/23 06:38:58;;;;;;;8.65;7.80;;;;;;;-145.41;100.00;58600.66;5024911;28;20037;-76
2023/06/23 06:41:24;;;;;;;7.45;5.47;;;;;;;-145.41;100.00;58600.66;5018764;28;20476;-75
2023/06/23 06:43:50;;;;;;;8.38;5.03;;;;;;;-145.41;100.00;58600.66;5024760;28;20034;-76
2023/06/23 06:46:17;;;;;;;6.80;5.97;;;;;;;-145.41;100.00;58600.66;5006888;28;20036;-75
2023/06/23 06:48:46;;;;;;;9.75;6.82;;;;;;;-145.41;100.00;58600.66;5025805;28;20034;-76
2023/06/23 06:51:15;;;;;;;12.27;6.75;;;;;;;-145.41;100.00;58600.66;5023726;28;20119;-75
2023/06/23 06:53:40;;;;;;;8.60;7.65;;;;;;;-145.41;100.00;58600.66;5025102;28;20033;-75
2023/06/23 06:56:06;;;;;;;8.80;7.45;;;;;;;-145.41;100.00;58600.66;5023900;28;20040;-75
2023/06/23 06:58:32;;;;;;;10.80;5.35;;;;;;;-145.41;100.00;58600.66;5022336;28;20032;-75
2023/06/23 07:00:58;;;;;;;9.68;5.93;;;;;;;-145.41;100.00;58600.66;5023853;28;20048;-75
2023/06/23 07:03:24;;;;;;;9.18;5.80;;;;;;;-145.41;100.00;58600.66;5022311;28;20121;-75
2023/06/23 07:05:50;;;;;;;8.20;5.35;;;;;;;-145.41;100.00;58600.66;5025921;28;20117;-75
2023/06/23 07:08:15;;;;;;;6.60;4.15;;;;;;;-145.41;100.00;58600.66;5019689;28;20034;-75
2023/06/23 07:10:40;;;;;;;7.32;4.53;;;;;;;-145.41;100.00;58600.66;5022499;28;20068;-75
2023/06/23 07:13:06;;;;;;;8.15;4.32;;;;;;;-145.41;100.00;58600.66;5025568;28;20037;-75
2023/06/23 07:15:31;;;;;;;5.45;4.00;;;;;;;-145.41;100.00;58600.66;5021956;28;20041;-75
2023/06/23 07:17:57;;;;;;;7.65;3.53;;;;;;;-145.41;100.00;58600.66;5021350;28;20097;-75
2023/06/23 07:20:22;;;;;;;8.70;3.42;;;;;;;-145.41;100.00;58600.66;5023542;28;20744;-75
2023/06/23 07:22:47;;;;;;;7.13;3.20;;;;;;;-145.41;100.00;58600.66;5024368;28;20472;-75
2023/06/23 07:25:13;;;;;;;8.85;4.68;;;;;;;-145.41;100.00;58600.66;5024513;28;20071;-75
2023/06/23 07:27:38;;;;;;;6.25;3.03;;;;;;;-145.41;100.00;58600.66;5026697;28;20495;-75
2023/06/23 07:30:04;;;;;;;6.40;3.05;;;;;;;-145.41;100.00;58600.66;5025947;28;20034;-75
2023/06/23 07:32:30;;;;;;;6.30;4.55;;;;;;;-145.41;100.00;58600.66;5022327;28;20485;-75
2023/06/23 07:34:55;;;;;;;8.57;3.65;;;;;;;-145.41;100.00;58600.66;5019351;28;20121;-75
2023/06/23 07:37:21;;;;;;;8.40;3.92;;;;;;;-145.41;100.00;58600.66;5019273;28;20099;-75
2023/06/23 07:39:46;;;;;;;7.57;3.15;;;;;;;-145.41;100.00;58600.66;5022710;28;20041;-76
2023/06/23 07:42:11;;;;;;;5.20;3.53;;;;;;;-145.41;100.00;58600.66;5022407;28;20033;-75
2023/06/23 07:44:37;;;;;;;6.05;2.90;;;;;;;-145.41;100.00;58600.66;5026469;28;20021;-75
2023/06/23 07:47:03;;;;;;;7.05;2.25;;;;;;;-145.41;100.00;58600.66;5007268;28;20034;-75
2023/06/23 07:49:29;;;;;;;6.97;2.40;;;;;;;-145.41;100.00;58600.66;5023930;28;20527;-75
2023/06/23 07:51:59;;;;;;;8.27;2.28;;;;;;;-145.41;100.00;58600.66;5027950;28;20062;-75
2023/06/23 07:54:28;;;;;;;5.53;3.13;;;;;;;-145.41;100.00;58600.66;5024504;28;20038;-75
2023/06/23 07:56:54;;;;;;;6.43;2.63;;;;;;;-145.41;100.00;58600.66;5024303;28;20495;-75
2023/06/23 07:59:20;;;;;;;6.35;2.20;;;;;;;-145.41;100.00;58600.66;5023046;28;20040;-76
2023/06/23 08:01:45;;;;;;;5.03;2.13;;;;;;;-145.41;100.00;58600.66;5022606;28;20037;-76
2023/06/23 08:04:10;;;;;;;5.57;2.33;;;;;;;-145.41;100.00;58600.66;5023164;28;20029;-75
2023/06/23 08:06:36;;;;;;;8.02;2.35;;;;;;;-145.41;100.00;58600.66;5014322;28;20082;-75
2023/06/23 08:09:01;;;;;;;4.82;1.80;;;;;;;-145.41;100.00;58600.66;5020835;28;20119;-76
2023/06/23 08:11:26;;;;;;;5.45;1.60;;;;;;;-145.41;100.00;58600.66;5023066;28;20065;-76
2023/06/23 08:13:52;;;;;;;5.22;1.15;;;;;;;-145.41;100.00;58600.66;5020669;28;20061;-75
2023/06/23 08:16:17;;;;;;;4.78;1.67;;;;;;;-145.41;100.00;58600.66;5026584;28;20496;-75
2023/06/23 08:18:42;;;;;;;1.98;1.10;;;;;;;-145.41;100.00;58600.66;5026744;28;20038;-76
2023/06/23 08:21:09;;;;;;;3.05;0.88;;;;;;;-145.41;100.00;58600.66;5020854;28;20053;-75
2023/06/23 08:23:34;;;;;;;3.33;1.20;;;;;;;-145.41;100.00;58600.66;5025804;28;20030;-75
2023/06/23 08:26:00;;;;;;;4.60;1.25;;;;;;;-145.41;100.00;58600.66;5019599;28;20515;-75
2023/06/23 08:28:25;;;;;;;3.92;1.10;;;;;;;-145.41;100.00;58600.66;5026270;28;20408;-75
2023/06/23 08:30:50;;;;;;;3.83;1.08;;;;;;;-145.41;100.00;58600.66;5023917;28;20041;-75
2023/06/23 08:33:16;;;;;;;2.58;1.15;;;;;;;-145.41;100.00;58600.66;5023935;28;20092;-75
2023/06/23 08:35:41;;;;;;;8.80;1.40;;;;;;;-145.41;100.00;58600.66;5018168;28;20041;-75
2023/06/23 08:38:06;;;;;;;3.38;1.20;;;;;;;-145.41;100.00;58600.66;5019456;28;20088;-75
2023/06/23 08:40:34;;;;;;;3.50;1.38;;;;;;;-145.41;100.00;58600.66;5025181;28;20037;-76
2023/06/23 08:43:00;;;;;;;2.67;1.58;;;;;;;-145.41;100.00;58600.66;5022049;28;20444;-76
2023/06/23 08:45:27;;;;;;;3.10;1.63;;;;;;;-145.41;100.00;58600.66;5020712;28;20038;-76
2023/06/23 08:47:57;;;;;;;3.40;1.50;;;;;;;-145.41;100.00;58600.66;5025223;28;20037;-75
2023/06/23 08:50:22;;;;;;;4.63;1.98;;;;;;;-145.41;100.00;58600.66;5022139;28;20061;-75
2023/06/23 08:52:48;;;;;;;3.40;1.45;;;;;;;-145.41;100.00;58600.66;5023196;28;20076;-75
2023/06/23 08:55:14;;;;;;;3.50;1.60;;;;;;;-145.41;100.00;58600.66;5020933;28;20065;-76
2023/06/23 08:57:40;;;;;;;2.80;1.45;;;;;;;-145.41;100.00;58600.66;5015759;28;20045;-76
2023/06/23 09:00:07;;;;;;;2.92;1.73;;;;;;;-145.41;100.00;58600.66;5024763;28;20033;-76
2023/06/23 09:02:33;;;;;;;3.70;2.33;;;;;;;-145.41;100.00;58600.66;5023257;28;20033;-75
2023/06/23 09:04:59;;;;;;;2.50;1.40;;;;;;;-145.41;100.00;58600.66;5020448;28;20506;-75
2023/06/23 09:07:25;;;;;;;2.70;1.55;;;;;;;-145.41;100.00;58600.66;5027274;28;20037;-76
2023/06/23 09:09:50;;;;;;;5.55;1.60;;;;;;;-145.41;100.00;58600.66;5017460;28;20046;-76
2023/06/23 09:12:20;;;;;;;2.50;1.50;;;;;;;-145.41;100.00;58600.66;5024214;28;20401;-75
2023/06/23 09:14:47;;;;;;;3.25;1.75;;;;;;;-145.41;100.00;58600.66;5018999;28;20119;-76
2023/06/23 09:17:13;;;;;;;2.42;1.42;;;;;;;-145.41;100.00;58600.66;5005762;28;20113;-76
2023/06/23 09:19:42;;;;;;;3.08;1.75;;;;;;;-145.41;100.00;58600.66;5005521;28;20035;-76
2023/06/23 09:22:09;;;;;;;5.47;2.75;;;;;;;-145.41;100.00;58600.66;5019141;28;20045;-75
2023/06/23 09:24:43;;;;;;;5.00;2.25;;;;;;;-145.41;100.00;58600.66;5023280;28;20457;-76
2023/06/23 09:27:09;;;;;;;4.90;2.10;;;;;;;-145.41;100.00;58600.66;5019969;28;20054;-75
2023/06/23 09:29:37;;;;;;;4.20;2.50;;;;;;;-145.41;100.00;58600.66;5021732;28;20447;-76
2023/06/23 09:32:03;;;;;;;4.60;2.70;;;;;;;-145.41;100.00;58600.66;5017427;28;20056;-76
2023/06/23 09:34:31;;;;;;;9.25;3.33;;;;;;;-145.41;100.00;58600.66;5025827;28;20575;-76
2023/06/23 09:37:13;;;;;;;6.07;2.38;;;;;;;-145.41;100.00;58600.66;5012576;28;20037;-76
2023/06/23 09:39:48;;;;;;;3.70;1.73;;;;;;;-145.41;100.00;58600.66;5015973;28;20038;-76
2023/06/23 09:42:14;;;;;;;2.50;1.42;;;;;;;-145.41;100.00;58600.66;5019372;28;20054;-76
2023/06/23 09:44:41;;;;;;;3.50;1.40;;;;;;;-145.41;100.00;58600.66;5010815;28;20447;-76
2023/06/23 09:47:07;;;;;;;2.75;1.75;;;;;;;-145.41;100.00;58600.66;5028724;28;20036;-75
2023/06/23 09:49:40;;;;;;;1.88;1.20;;;;;;;-145.41;100.00;58600.66;5017320;28;20400;-76
2023/06/23 09:52:07;;;;;;;2.28;1.25;;;;;;;-145.41;100.00;58600.66;5019878;28;20026;-76
2023/06/23 09:54:36;;;;;;;3.88;1.70;;;;;;;-145.41;100.00;58600.66;5020689;28;20456;-76
2023/06/23 09:57:06;;;;;;;2.83;1.15;;;;;;;-145.41;100.00;58600.66;5021144;28;20049;-76
2023/06/23 09:59:31;;;;;;;3.00;1.63;;;;;;;-145.41;100.00;58600.66;5012810;28;20051;-76
2023/06/23 10:01:57;;;;;;;2.45;1.55;;;;;;;-145.41;100.00;58600.66;5023103;28;20112;-76
2023/06/23 10:04:29;;;;;;;4.50;1.67;;;;;;;-145.41;100.00;58600.66;5013386;28;20041;-75
2023/06/23 10:06:55;;;;;;;3.65;1.38;;;;;;;-145.41;100.00;58600.66;5019006;28;20047;-76
2023/06/23 10:09:23;;;;;;;3.97;1.50;;;;;;;-145.41;100.00;58600.66;5023892;28;20025;-76
2023/06/23 10:11:49;;;;;;;3.05;1.30;;;;;;;-145.41;100.00;58600.66;5022861;28;20040;-75
2023/06/23 10:14:15;;;;;;;4.05;1.75;;;;;;;-145.41;100.00;58600.66;5019452;28;20034;-75
2023/06/23 10:16:43;;;;;;;2.92;1.15;;;;;;;-145.41;100.00;58600.66;5022092;28;20044;-75
2023/06/23 10:19:09;;;;;;;2.58;1.20;;;;;;;-145.41;100.00;58600.66;5021364;28;20381;-76
2023/06/23 10:21:35;;;;;;;2.17;1.25;;;;;;;-145.41;100.00;58600.66;5042136;22;20038;-76
2023/06/23 10:24:07;;;;;;;3.50;1.80;;;;;;;-145.41;100.00;58600.66;5028176;28;20041;-76
2023/06/23 10:26:35;;;;;;;2.33;1.25;;;;;;;-145.41;100.00;58600.66;5026666;28;20026;-76
2023/06/23 10:29:06;;;;;;;3.33;1.10;;;;;;;-145.41;100.00;58600.66;5029285;28;20056;-76
2023/06/23 10:31:33;;;;;;;2.38;1.30;;;;;;;-145.41;100.00;58600.66;5020219;28;20042;-75
2023/06/23 10:34:01;;;;;;;3.17;1.10;;;;;;;-145.41;100.00;58600.66;5025702;28;20034;-75
2023/06/23 10:36:29;;;;;;;3.63;1.45;;;;;;;-145.41;100.00;58600.66;5030636;28;20507;-75
2023/06/23 10:38:58;;;;;;;1.95;1.10;;;;;;;-145.41;100.00;58600.66;5029393;28;20044;-76
2023/06/23 10:41:26;;;;;;;2.58;1.30;;;;;;;-145.41;100.00;58600.66;5029596;28;20037;-76
2023/06/23 10:43:54;;;;;;;2.55;1.35;;;;;;;-145.41;100.00;58600.66;5030623;28;20029;-76
2023/06/23 10:46:22;;;;;;;5.55;1.38;;;;;;;-145.41;100.00;58600.66;5029310;28;20043;-75
2023/06/23 10:48:49;;;;;;;2.70;1.10;;;;;;;-145.41;100.00;58600.66;5026880;28;20099;-76
2023/06/23 10:51:15;;;;;;;1.80;0.95;;;;;;;-145.41;100.00;58600.66;5029035;28;20042;-76
2023/06/23 10:53:47;;;;;;;2.28;1.23;;;;;;;-145.41;100.00;58600.66;5030147;28;20040;-75
2023/06/23 10:56:30;;;;;;;1.85;1.05;;;;;;;-145.41;100.00;58600.66;5030088;28;20104;-75
2023/06/23 10:58:55;;;;;;;2.88;1.20;;;;;;;-145.41;100.00;58600.66;5027965;28;20044;-76
2023/06/23 11:01:20;;;;;;;2.45;1.33;;;;;;;-145.41;100.00;58600.66;5028314;28;20045;-76
2023/06/23 11:03:51;;;;;;;3.22;1.10;;;;;;;-145.41;100.00;58600.66;5030310;28;20036;-76
2023/06/23 11:06:42;;;;;;;3.85;1.65;;;;;;;-145.41;100.00;58600.66;5030602;28;20377;-76
2023/06/23 11:09:45;;;;;;;2.15;1.20;;;;;;;-145.41;100.00;58600.66;5029569;28;20065;-76
2023/06/23 11:12:32;;;;;;;2.75;1.13;;;;;;;-145.41;100.00;58600.66;5027051;28;20511;-76